• Join FlightAware (Why Join?)
  • Login
  • US Flag 
04:10AM EDT


 

Airport Tracker/Info


-or-


 

Live Flight TrackerFlight Track Log ✈ N75AW ✈ 10-Nov-2013 ✈ KGRD - KAPF

Flight Track Log - Related Links

Times and Time Zones

All times are in EST time to prevent confusion due to time zone crossing. See the N75AW flight status page for this flight to view local times or setup timezone preferences in your user account.

Time Position Orientation Groundspeed Altitude Reporting Facility
EST Latitude Longitude Course Direction KTS MPH feet Rate Location/Type
07:30PM 34.1769 -82.1908 178° South 172 198 4,200  Level Atlanta Center
07:31PM 34.1308 -82.1892 178° South 172 198 5,900 1,740 Climbing Atlanta Center
07:32PM 34.0828 -82.1803 171° South 172 198 7,700 1,980 Climbing Atlanta Center
07:33PM 34.0308 -82.1839 183° South 177 204 9,900 1,920 Climbing Atlanta Center
07:34PM 33.9828 -82.1875 184° South 177 204 11,600 1,740 Climbing Atlanta Center
07:35PM 33.9347 -82.1886 181° South 177 204 13,400 1,680 Climbing Atlanta Center
07:36PM 33.8867 -82.1869 178° South 177 204 15,000 1,560 Climbing Atlanta Center
07:37PM 33.8367 -82.1806 174° South 177 204 16,600 1,500 Climbing Atlanta Center
07:38PM 33.7883 -82.1767 176° South 177 204 18,100 1,440 Climbing Atlanta Center
07:39PM 33.7403 -82.1703 174° South 177 204 19,500 1,260 Climbing Atlanta Center
07:40PM 33.6944 -82.1661 176° South 177 204 20,700 1,140 Climbing Atlanta Center
07:41PM 33.6464 -82.1672 181° South 177 204 21,800 1,080 Climbing Atlanta Center
07:42PM 33.6006 -82.1658 179° South 177 204 22,900 1,020 Climbing Atlanta Center
07:43PM 33.5544 -82.1667 181° South 177 204 23,900 600 Climbing Atlanta Center
07:44PM 33.5044 -82.1653 179° South 177 204 24,100 60 Climbing Atlanta Center
07:45PM 33.4397 -82.1667 181° South 201 231 24,100  Level Atlanta Center
07:46PM 33.3689 -82.1658 179° South 234 269 24,100  Level Atlanta Center
07:47PM 33.2936 -82.1650 179° South 257 296 24,100  Level Atlanta Center
07:48PM 33.2164 -82.1642 179° South 270 311 24,100  Level Atlanta Center
07:49PM 33.1369 -82.1633 179° South 282 325 24,100  Level Atlanta Center
07:50PM 33.0597 -82.1625 179° South 287 330 24,100  Level Atlanta Center
07:51PM 32.9825 -82.1617 179° South 287 330 24,100  Level Atlanta Center
07:52PM 32.9053 -82.1608 179° South 287 330 24,100  Level Atlanta Center
07:53PM 32.8261 -82.1600 179° South 287 330 24,100  Level Atlanta Center
07:54PM 32.7508 -82.1594 180° South 287 330 24,100  Level Atlanta Center
07:56PM 32.6175 -82.1575 179° South 269 310 24,100  Level Jacksonville Center
07:57PM 32.5403 -82.1558 179° South 269 310 24,100  Level Jacksonville Center
07:58PM 32.4631 -82.1564 180° South 269 310 24,100  Level Jacksonville Center
07:59PM 32.3878 -82.1569 180° South 274 315 24,100  Level Jacksonville Center
08:00PM 32.3022 -82.1578 180° South 274 315 24,100  Level Jacksonville Center
08:01PM 32.2333 -82.1558 179° South 279 321 24,100  Level Jacksonville Center
08:02PM 32.1478 -82.1539 179° South 279 321 24,100  Level Jacksonville Center
08:03PM 32.0725 -82.1547 181° South 279 321 24,100  Level Jacksonville Center
08:04PM 32.0036 -82.1528 179° South 279 321 24,100  Level Jacksonville Center
08:05PM 31.9200 -82.1533 180° South 274 315 24,100  Level Jacksonville Center
08:06PM 31.8492 -82.1514 179° South 274 315 24,100  Level Jacksonville Center
08:07PM 31.7636 -82.1497 179° South 274 315 24,100  Level Jacksonville Center
08:08PM 31.6883 -82.1478 179° South 274 315 24,100  Level Jacksonville Center
08:09PM 31.6089 -82.1508 182° South 274 315 24,100  Level Jacksonville Center
08:10PM 31.5339 -82.1492 179° South 274 315 24,100  Level Jacksonville Center
08:11PM 31.4567 -82.1472 179° South 274 315 24,100  Level Jacksonville Center
08:12PM 31.3792 -82.1481 181° South 274 315 24,100  Level Jacksonville Center
08:13PM 31.3042 -82.1461 179° South 274 315 24,100  Level Jacksonville Center
08:14PM 31.2269 -82.1442 179° South 274 315 24,100  Level Jacksonville Center
08:15PM 31.1475 -82.1425 179° South 274 315 24,100  Level Jacksonville Center
08:16PM 31.0703 -82.1456 182° South 274 315 24,100  Level Jacksonville Center
08:17PM 30.9950 -82.1414 177° South 274 315 24,100  Level Jacksonville Center
08:18PM 30.9158 -82.1419 180° South 274 315 24,100  Level Jacksonville Center
08:19PM 30.8386 -82.1400 179° South 274 315 24,100  Level Jacksonville Center
08:20PM 30.7633 -82.1406 180° South 274 315 24,100  Level Jacksonville Center
08:21PM 30.6839 -82.1389 179° South 274 315 24,100  Level Jacksonville Center
08:22PM 30.6067 -82.1372 179° South 274 315 24,100  Level Jacksonville Center
08:23PM 30.5400 -82.1353 179° South 274 315 24,100  Level Jacksonville Center
08:24PM 30.4606 -82.1286 176° South 274 315 24,100  Level Jacksonville Center
08:25PM 30.3769 -82.1294 180° South 274 315 24,100  Level Jacksonville Center
08:26PM 30.2978 -82.1300 180° South 274 315 24,100  Level Jacksonville Center
08:27PM 30.2203 -82.1306 180° South 274 315 24,100  Level Jacksonville Center
08:28PM 30.1411 -82.1217 174° South 274 315 24,200  Climbing Jacksonville Center
08:29PM 30.0617 -82.1031 169° South 280 322 24,100 -60 Descending Jacksonville Center
08:30PM 29.9822 -82.0942 174° South 285 328 24,100  Level Jacksonville Center
08:31PM 29.9089 -82.0778 169° South 293 337 24,100  Level Jacksonville Center
08:32PM 29.8317 -82.0617 170° South 293 337 24,100  Level Jacksonville Center
08:33PM 29.7458 -82.0408 168° South 293 337 24,100  Level Jacksonville Center
08:34PM 29.6750 -82.0319 174° South 293 337 24,100  Level Jacksonville Center
08:35PM 29.5975 -82.0161 170° South 293 337 24,100  Level Jacksonville Center
08:36PM 29.5181 -82.0025 172° South 293 337 24,100  Level Jacksonville Center
08:37PM 29.4386 -81.9839 168° South 293 337 24,100  Level Jacksonville Center
08:38PM 29.3614 -81.9681 170° South 293 337 24,100  Level Jacksonville Center
08:39PM 29.2839 -81.9544 171° South 293 337 24,100 -60 Level Jacksonville Center
08:40PM 29.1961 -81.9317 167° South 293 337 24,000 -420 Descending Jacksonville Center
08:41PM 29.1167 -81.9156 170° South 293 337 23,300 -480 Descending Jacksonville Center
08:42PM 29.0331 -81.9000 171° South 298 343 23,100 -120 Descending Jacksonville Center
08:43PM 28.9558 -81.8842 170° South 291 335 23,100  Level Jacksonville Center
08:44PM 28.8764 -81.8683 170° South 291 335 23,100  Level Jacksonville Center
08:46PM 28.6942 -81.8347 171° South 289 333 23,100  Level Miami Center
08:47PM 28.6156 -81.8194 170° South 289 333 23,100  Level Miami Center
08:48PM 28.5389 -81.8042 170° South 289 333 23,100  Level Miami Center
08:49PM 28.4603 -81.7842 167° South 294 338 23,100  Level Miami Center
08:50PM 28.3836 -81.7692 170° South 294 338 23,100  Level Miami Center
08:51PM 28.3028 -81.7514 169° South 294 338 23,100  Level Miami Center
08:52PM 28.2242 -81.7364 170° South 294 338 23,100  Level Miami Center
08:53PM 28.1475 -81.7189 169° South 294 338 23,100  Level Miami Center
08:54PM 28.0708 -81.7014 169° South 294 338 23,100  Level Miami Center
08:55PM 27.9919 -81.6864 170° South 294 338 23,100 -480 Level Miami Center
08:56PM 27.9133 -81.6711 170° South 294 338 22,200 -960 Descending Miami Center
08:57PM 27.8303 -81.6536 169° South 294 338 21,200 -900 Descending Miami Center
08:58PM 27.7414 -81.6333 169° South 294 338 20,400 -960 Descending Miami Center
08:59PM 27.6689 -81.6164 169° South 294 338 19,300 -1,260 Descending Miami Center
09:00PM 27.6593 -81.6145 169° South  Level FlightAware Approximate
09:00PM 27.5756 -81.5983 170° South 294 338 17,900  Level Miami Center
09:01PM 27.4925 -81.5833 171° South 299 344 23,000 2,520 Climbing Miami Center
09:02PM 27.4097 -81.5658 169° South 299 344 23,000  Level Miami Center
09:03PM 27.3308 -81.5486 169° South 299 344 23,000  Level Miami Center
09:05PM 27.2518 -81.5174 161° South  Level FlightAware Approximate
09:05PM 27.1753 -81.5167 161° South 292 336 23,000  Level Miami Center
09:06PM 27.1006 -81.5019 170° South 287 330 23,000  Level Miami Center
09:07PM 27.0303 -81.4853 168° South 275 316 23,000  Level Miami Center
09:08PM 26.9600 -81.4614 163° South 270 311 23,000  Level Miami Center
09:09PM 26.8950 -81.4706 187° South 253 291 23,000  Level Miami Center
09:10PM 26.8253 -81.4981 199° South 248 285 23,000  Level Miami Center
09:11PM 26.7619 -81.5233 200° South 253 291 23,000  Level Miami Center
09:12PM 26.6961 -81.5511 201° Southwest 253 291 23,000  Level Miami Center
09:13PM 26.6306 -81.5786 201° Southwest 253 291 23,000  Level Miami Center
09:14PM 26.5669 -81.6086 203° Southwest 253 291 23,000  Level Miami Center
09:15PM 26.5033 -81.6361 201° Southwest 253 291 23,000  Level Miami Center
09:16PM 26.4378 -81.6636 201° Southwest 261 300 23,000  Level Miami Center
09:17PM 26.3700 -81.6911 200° South 254 292 23,000  Level Miami Center
09:18PM 26.3044 -81.7183 200° South 254 292 23,000  Level Miami Center
09:19PM 26.2492 -81.7508 208° Southwest 254 292 23,000  Level Miami Center
09:20PM 26.1956 -81.7903 213° Southwest 241 277 23,000  Level Miami Center
09:21PM 26.1567 -81.8258 219° Southwest 199 229 23,000  Level Miami Center
09:22PM 26.1231 -81.8358 195° South 143 165 23,000  Level Miami Center
09:23PM 26.1217 -81.8150 94° East 67 77 23,000  Level Miami Center
09:24PM 26.1369 -81.7947 50° Northeast 60 69 23,000  Level Miami Center
09:25PM 26.1397 -81.7764 80° East 60 69 23,000  Level Miami Center
09:27PM 26.1500 -81.7667 42° Northeast  Level FlightAware Approximate